createdAt,value
2022-10-24T00:01:36.197Z,17.03
2022-10-24T00:06:36.490Z,17.00
2022-10-24T00:09:05.021Z,17.02
2022-10-24T00:11:32.655Z,16.91
2022-10-24T00:14:02.064Z,16.96
2022-10-24T00:16:29.937Z,16.95
2022-10-24T00:18:57.687Z,16.87
2022-10-24T00:21:25.359Z,16.80
2022-10-24T00:23:53.247Z,16.72
2022-10-24T00:26:20.856Z,16.70
2022-10-24T00:28:48.574Z,16.63
2022-10-24T00:31:20.051Z,16.67
2022-10-24T00:33:47.878Z,16.59
2022-10-24T00:36:18.232Z,16.17
2022-10-24T00:38:45.904Z,15.60
2022-10-24T00:41:16.008Z,15.11
2022-10-24T00:43:43.704Z,14.68
2022-10-24T00:46:11.881Z,14.38
2022-10-24T00:48:43.709Z,14.19
2022-10-24T00:51:17.432Z,14.03
2022-10-24T00:53:48.589Z,14.03
2022-10-24T00:56:20.507Z,13.87
2022-10-24T00:58:51.043Z,13.83
2022-10-24T01:01:19.061Z,13.86
2022-10-24T01:03:48.099Z,13.81
2022-10-24T01:06:30.318Z,13.83
2022-10-24T01:09:10.184Z,13.77
2022-10-24T01:11:51.882Z,13.74
2022-10-24T01:14:31.187Z,13.74
2022-10-24T01:17:08.470Z,13.70
2022-10-24T01:20:08.734Z,13.68
2022-10-24T01:22:46.988Z,13.69
2022-10-24T01:25:19.386Z,13.67
2022-10-24T01:28:02.010Z,13.66
2022-10-24T01:30:35.780Z,13.64
2022-10-24T01:33:07.717Z,13.62
2022-10-24T01:35:40.433Z,13.61
2022-10-24T01:38:14.435Z,13.60
2022-10-24T01:40:50.698Z,13.58
2022-10-24T01:43:23.116Z,13.60
2022-10-24T01:45:58.193Z,13.58
2022-10-24T01:48:27.266Z,13.60
2022-10-24T01:50:57.080Z,13.54
2022-10-24T01:53:28.788Z,13.49
2022-10-24T01:55:57.447Z,13.50
2022-10-24T01:58:25.133Z,13.49
2022-10-24T02:00:59.582Z,13.51
2022-10-24T02:03:32.297Z,13.50
2022-10-24T02:06:04.439Z,13.50
2022-10-24T02:08:35.556Z,13.51
2022-10-24T02:11:07.433Z,13.50
2022-10-24T02:13:40.625Z,13.48
2022-10-24T02:16:10.633Z,13.46
2022-10-24T02:18:40.550Z,13.47
2022-10-24T02:21:18.714Z,13.42
2022-10-24T02:23:52.973Z,13.43
2022-10-24T02:26:27.841Z,13.40
2022-10-24T02:28:59.534Z,13.40
2022-10-24T02:31:34.460Z,13.39
2022-10-24T02:34:03.143Z,13.38
2022-10-24T02:36:32.458Z,13.38
2022-10-24T02:41:58.788Z,13.38
2022-10-24T02:44:29.194Z,13.38
2022-10-24T02:47:02.116Z,13.40
2022-10-24T02:49:29.903Z,13.37
2022-10-24T02:51:57.854Z,13.42
2022-10-24T02:54:25.474Z,13.42
2022-10-24T02:56:56.101Z,13.44
2022-10-24T02:59:23.723Z,13.47
2022-10-24T03:01:51.393Z,13.43
2022-10-24T03:04:20.433Z,13.45
2022-10-24T03:06:48.074Z,13.44
2022-10-24T03:09:15.720Z,13.46
2022-10-24T03:11:43.589Z,13.46
2022-10-24T03:14:11.236Z,13.47
2022-10-24T03:16:38.914Z,13.50
2022-10-24T03:19:08.424Z,13.52
2022-10-24T03:21:37.558Z,13.52
2022-10-24T03:24:05.614Z,13.53
2022-10-24T03:26:33.404Z,13.51
2022-10-24T03:29:01.290Z,13.53
2022-10-24T03:31:30.685Z,13.56
2022-10-24T03:33:58.661Z,13.61
2022-10-24T03:36:27.061Z,13.60
2022-10-24T03:38:56.090Z,13.62
2022-10-24T03:41:23.729Z,13.66
2022-10-24T03:43:51.468Z,13.69
2022-10-24T03:46:19.111Z,13.68
2022-10-24T03:48:46.766Z,13.68
2022-10-24T03:51:14.440Z,13.70
2022-10-24T03:53:42.099Z,13.73
2022-10-24T03:56:11.168Z,13.77
2022-10-24T03:58:38.814Z,13.81
2022-10-24T04:01:06.574Z,13.80
2022-10-24T04:03:34.280Z,13.81
2022-10-24T04:06:02.106Z,13.76
2022-10-24T04:08:29.738Z,13.75
2022-10-24T04:10:57.389Z,13.69
2022-10-24T04:13:26.462Z,13.67
2022-10-24T04:15:54.186Z,13.62
2022-10-24T04:18:21.910Z,13.63
2022-10-24T04:20:49.548Z,13.56
2022-10-24T04:23:17.378Z,13.55
2022-10-24T04:25:45.135Z,13.57
2022-10-24T04:28:12.931Z,13.51
2022-10-24T04:33:14.602Z,13.52
2022-10-24T04:35:48.569Z,13.44
2022-10-24T04:38:16.258Z,13.44
2022-10-24T04:40:46.822Z,13.61
2022-10-24T04:43:14.481Z,13.58
2022-10-24T04:45:43.469Z,13.62
2022-10-24T04:48:11.321Z,13.65
2022-10-24T04:50:40.900Z,13.57
2022-10-24T04:53:09.293Z,13.62
2022-10-24T04:58:10.150Z,13.64
2022-10-24T05:00:37.890Z,13.63
2022-10-24T05:03:06.909Z,13.60
2022-10-24T05:05:34.564Z,13.58
2022-10-24T05:08:02.179Z,13.61
2022-10-24T05:10:29.851Z,13.61
2022-10-24T05:12:57.500Z,13.57
2022-10-24T05:15:25.454Z,13.57
2022-10-24T05:17:53.082Z,13.57
2022-10-24T05:20:22.071Z,13.59
2022-10-24T05:22:49.795Z,13.60
2022-10-24T05:25:17.690Z,13.63
2022-10-24T05:27:45.324Z,13.66
2022-10-24T05:30:13.797Z,13.65
2022-10-24T05:32:41.657Z,13.70
2022-10-24T05:35:10.668Z,13.71
2022-10-24T05:37:39.830Z,13.74
2022-10-24T05:40:09.946Z,13.75
2022-10-24T05:42:38.663Z,13.77
2022-10-24T05:45:07.263Z,13.76
2022-10-24T05:47:35.011Z,13.71
2022-10-24T05:50:02.826Z,13.70
2022-10-24T05:52:30.504Z,13.69
2022-10-24T05:55:08.003Z,13.68
2022-10-24T05:57:36.758Z,13.66
2022-10-24T06:00:06.458Z,13.65
2022-10-24T06:02:34.261Z,13.63
2022-10-24T06:05:02.209Z,13.66
2022-10-24T06:07:30.308Z,13.69
2022-10-24T06:09:59.449Z,13.69
2022-10-24T06:12:27.203Z,13.69
2022-10-24T06:14:57.631Z,13.69
2022-10-24T06:17:25.386Z,13.69
2022-10-24T06:19:53.133Z,13.69
2022-10-24T06:22:23.938Z,13.65
2022-10-24T06:24:51.771Z,13.67
2022-10-24T06:27:20.801Z,13.68
2022-10-24T06:29:48.491Z,13.69
2022-10-24T06:32:16.123Z,13.67
2022-10-24T06:34:43.769Z,13.65
2022-10-24T06:37:11.625Z,13.69
2022-10-24T06:39:39.329Z,13.65
2022-10-24T06:42:07.083Z,13.68
2022-10-24T06:44:36.609Z,13.69
2022-10-24T06:47:04.375Z,13.71
2022-10-24T06:49:32.073Z,13.72
2022-10-24T06:51:59.773Z,13.75
2022-10-24T06:54:30.134Z,13.72
2022-10-24T06:56:58.255Z,13.70
2022-10-24T06:59:26.277Z,13.74
2022-10-24T07:01:55.372Z,13.75
2022-10-24T07:04:23.193Z,13.75
2022-10-24T07:06:50.918Z,13.78
2022-10-24T07:09:18.832Z,13.77
2022-10-24T07:11:46.961Z,13.75
2022-10-24T07:14:14.726Z,13.73
2022-10-24T07:16:42.364Z,13.74
2022-10-24T07:19:12.134Z,13.70
2022-10-24T07:21:39.867Z,13.74
2022-10-24T07:24:08.643Z,13.73
2022-10-24T07:26:36.368Z,13.77
2022-10-24T07:29:04.800Z,13.75
2022-10-24T07:31:35.610Z,13.74
2022-10-24T07:34:05.232Z,13.69
2022-10-24T07:36:34.759Z,13.77
2022-10-24T07:39:03.037Z,13.82
2022-10-24T07:41:33.079Z,13.96
2022-10-24T07:44:02.271Z,13.94
2022-10-24T07:46:30.895Z,13.97
2022-10-24T07:48:58.735Z,13.93
2022-10-24T07:51:28.530Z,13.95
2022-10-24T07:53:58.043Z,13.89
2022-10-24T07:56:25.915Z,13.95
2022-10-24T07:58:56.523Z,13.91
2022-10-24T08:01:26.779Z,13.91
2022-10-24T08:03:54.850Z,13.86
2022-10-24T08:06:25.310Z,13.86
2022-10-24T08:08:53.098Z,13.87
2022-10-24T08:11:24.094Z,13.88
2022-10-24T08:13:53.189Z,13.93
2022-10-24T08:16:23.031Z,13.94
2022-10-24T08:18:52.056Z,13.97
2022-10-24T08:21:21.383Z,14.02
2022-10-24T08:23:51.175Z,14.06
2022-10-24T08:26:21.525Z,14.10
2022-10-24T08:28:51.055Z,14.18
2022-10-24T08:31:21.166Z,14.24
2022-10-24T08:33:49.630Z,14.22
2022-10-24T08:36:21.751Z,14.29
2022-10-24T08:38:49.450Z,14.31
2022-10-24T08:41:25.196Z,14.31
2022-10-24T08:43:54.529Z,14.27
2022-10-24T08:46:38.155Z,14.23
2022-10-24T08:49:16.145Z,14.26
2022-10-24T08:51:48.727Z,14.35
2022-10-24T08:54:22.690Z,14.29
2022-10-24T08:56:52.942Z,14.28
2022-10-24T08:59:22.275Z,14.33
2022-10-24T09:01:53.736Z,14.23
2022-10-24T09:04:25.995Z,14.26
2022-10-24T09:06:56.114Z,14.21
2022-10-24T09:09:29.694Z,14.23
2022-10-24T09:12:02.496Z,14.43
2022-10-24T09:14:33.021Z,14.49
2022-10-24T09:17:04.209Z,14.46
2022-10-24T09:19:33.718Z,14.59
2022-10-24T09:22:02.349Z,14.65
2022-10-24T09:24:36.601Z,14.71
2022-10-24T09:27:06.892Z,14.77
2022-10-24T09:29:35.984Z,14.74
2022-10-24T09:32:04.553Z,14.83
2022-10-24T09:34:32.206Z,14.82
2022-10-24T09:36:59.901Z,14.83
2022-10-24T09:39:30.935Z,14.81
2022-10-24T09:41:59.982Z,14.73
2022-10-24T09:44:41.030Z,14.76
2022-10-24T09:47:26.150Z,14.74
2022-10-24T09:49:54.083Z,14.76
2022-10-24T09:52:24.028Z,14.80
2022-10-24T09:55:07.767Z,14.91
2022-10-24T09:57:41.053Z,15.00
2022-10-24T10:00:22.527Z,15.06
2022-10-24T10:02:59.520Z,15.05
2022-10-24T10:05:27.270Z,15.03
2022-10-24T10:07:54.946Z,14.89
2022-10-24T10:10:35.038Z,14.85
2022-10-24T10:13:18.984Z,14.82
2022-10-24T10:15:53.244Z,14.69
2022-10-24T10:18:28.029Z,14.60
2022-10-24T10:21:05.202Z,14.58
2022-10-24T10:23:36.241Z,14.63
2022-10-24T10:26:17.428Z,14.62
2022-10-24T10:28:52.443Z,14.60
2022-10-24T10:31:27.088Z,14.56
2022-10-24T10:34:21.362Z,14.58
2022-10-24T10:37:05.512Z,14.55
2022-10-24T10:39:48.811Z,14.57
2022-10-24T10:42:22.625Z,14.55
2022-10-24T10:45:01.487Z,14.58
2022-10-24T10:47:43.494Z,14.57
2022-10-24T10:50:26.394Z,14.54
2022-10-24T10:53:00.009Z,14.52
2022-10-24T10:55:36.154Z,14.47
2022-10-24T10:58:16.877Z,14.49
2022-10-24T11:00:58.189Z,14.43
2022-10-24T11:03:38.444Z,14.37
2022-10-24T11:06:23.295Z,14.29
2022-10-24T11:09:08.479Z,14.17
2022-10-24T11:11:42.637Z,14.10
2022-10-24T11:14:23.485Z,14.05
2022-10-24T11:16:54.591Z,14.03
2022-10-24T11:19:30.103Z,13.96
2022-10-24T11:21:59.585Z,13.91
2022-10-24T11:24:28.476Z,13.85
2022-10-24T11:27:03.142Z,13.87
2022-10-24T11:29:34.394Z,13.92
2022-10-24T11:32:07.180Z,13.89
2022-10-24T11:34:47.674Z,13.86
2022-10-24T11:37:19.959Z,13.84
2022-10-24T11:39:53.660Z,13.80
2022-10-24T11:42:28.285Z,13.74
2022-10-24T11:45:02.385Z,13.78
2022-10-24T11:47:47.503Z,13.79
2022-10-24T11:50:26.613Z,13.71
2022-10-24T11:53:05.014Z,13.72
2022-10-24T11:55:40.756Z,13.68
2022-10-24T11:58:17.301Z,13.66
2022-10-24T12:01:08.843Z,13.59
2022-10-24T12:04:03.491Z,13.58
2022-10-24T12:06:52.803Z,13.53
2022-10-24T12:09:44.707Z,13.53
2022-10-24T12:12:48.016Z,13.52
2022-10-24T12:15:37.674Z,13.52
2022-10-24T12:18:24.127Z,13.43
2022-10-24T12:20:53.695Z,13.45
2022-10-24T12:23:27.455Z,13.42
2022-10-24T12:26:06.857Z,13.43
2022-10-24T12:28:35.847Z,13.41
2022-10-24T12:31:25.324Z,13.37
2022-10-24T12:34:34.401Z,13.34
2022-10-24T12:37:08.190Z,13.33
2022-10-24T12:39:39.373Z,13.34
2022-10-24T12:42:15.518Z,13.38
2022-10-24T12:44:47.392Z,13.38
2022-10-24T12:47:36.654Z,13.37
2022-10-24T12:50:41.997Z,13.37
2022-10-24T12:53:35.882Z,13.33
2022-10-24T12:56:22.714Z,13.36
2022-10-24T12:59:05.529Z,13.36
2022-10-24T13:01:35.654Z,13.32
2022-10-24T13:04:40.159Z,13.29
2022-10-24T13:07:29.366Z,13.31
2022-10-24T13:10:10.590Z,13.30
2022-10-24T13:12:59.579Z,13.28
2022-10-24T13:15:36.883Z,13.30
2022-10-24T13:18:19.542Z,13.36
2022-10-24T13:20:50.196Z,13.33
2022-10-24T13:23:22.158Z,13.28
2022-10-24T13:25:51.884Z,13.31
2022-10-24T13:28:40.633Z,13.27
2022-10-24T13:31:40.786Z,13.24
2022-10-24T13:34:16.687Z,13.26
2022-10-24T13:36:46.405Z,13.26
2022-10-24T13:39:19.415Z,13.27
2022-10-24T13:41:51.009Z,13.24
2022-10-24T13:44:27.814Z,13.23
2022-10-24T13:47:01.818Z,13.27
2022-10-24T13:49:32.788Z,13.28
2022-10-24T13:52:07.919Z,13.35
2022-10-24T13:54:39.064Z,13.36
2022-10-24T13:57:25.318Z,13.32
2022-10-24T14:00:00.012Z,13.27
2022-10-24T14:02:32.415Z,13.23
2022-10-24T14:05:01.559Z,13.22
2022-10-24T14:07:31.099Z,13.23
2022-10-24T14:10:03.665Z,13.19
2022-10-24T14:12:34.184Z,13.15
2022-10-24T14:15:03.852Z,13.11
2022-10-24T14:17:33.641Z,13.08
2022-10-24T14:20:03.585Z,13.08
2022-10-24T14:22:39.696Z,13.05
2022-10-24T14:25:08.055Z,13.06
2022-10-24T14:27:36.513Z,13.06
2022-10-24T14:30:06.722Z,13.07
2022-10-24T14:32:34.441Z,13.06
2022-10-24T14:35:03.109Z,13.09
2022-10-24T14:37:34.328Z,13.08
2022-10-24T14:40:02.739Z,13.07
2022-10-24T14:42:31.793Z,13.02
2022-10-24T14:45:00.334Z,13.02
2022-10-24T14:47:31.929Z,13.01
2022-10-24T14:49:59.793Z,12.96
2022-10-24T14:52:32.125Z,12.95
2022-10-24T14:55:04.392Z,12.93
2022-10-24T14:57:34.907Z,12.87
2022-10-24T15:00:08.335Z,12.84
2022-10-24T15:02:43.183Z,12.87
2022-10-24T15:05:31.160Z,12.79
2022-10-24T15:08:22.745Z,12.81
2022-10-24T15:11:01.661Z,12.75
2022-10-24T15:13:33.657Z,12.75
2022-10-24T15:16:06.735Z,12.71
2022-10-24T15:18:43.538Z,12.66
2022-10-24T15:21:16.100Z,12.69
2022-10-24T15:23:47.947Z,12.63
2022-10-24T15:26:20.799Z,12.59
2022-10-24T15:28:50.730Z,12.52
2022-10-24T15:31:20.399Z,12.44
2022-10-24T15:33:49.880Z,12.43
2022-10-24T15:36:23.634Z,12.39
2022-10-24T15:38:56.003Z,12.35
2022-10-24T15:41:24.014Z,12.31
2022-10-24T15:43:51.814Z,12.33
2022-10-24T15:46:19.548Z,12.27
2022-10-24T15:48:47.215Z,12.24
2022-10-24T15:51:18.462Z,12.19
2022-10-24T15:53:47.977Z,12.19
2022-10-24T15:56:15.723Z,12.13
2022-10-24T15:58:43.872Z,12.11
2022-10-24T16:01:23.152Z,12.09
2022-10-24T16:03:50.951Z,12.06
2022-10-24T16:06:20.825Z,12.06
2022-10-24T16:08:48.653Z,12.03
2022-10-24T16:11:16.616Z,12.02
2022-10-24T16:13:44.594Z,11.99
2022-10-24T16:16:12.462Z,11.92
2022-10-24T16:18:40.151Z,11.92
2022-10-24T16:21:07.916Z,11.88
2022-10-24T16:23:36.977Z,11.92
2022-10-24T16:26:04.704Z,11.94
2022-10-24T16:28:32.387Z,11.88
2022-10-24T16:31:00.085Z,11.93
2022-10-24T16:33:27.779Z,11.88
2022-10-24T16:35:55.463Z,11.91
2022-10-24T16:38:23.151Z,11.92
2022-10-24T16:40:54.013Z,11.91
2022-10-24T16:43:22.046Z,11.85
2022-10-24T16:45:57.623Z,11.93
2022-10-24T16:48:25.225Z,11.89
2022-10-24T16:50:53.223Z,11.89
2022-10-24T16:53:21.748Z,11.84
2022-10-24T16:55:50.479Z,11.88
2022-10-24T16:58:23.044Z,11.86
2022-10-24T17:00:50.930Z,11.90
2022-10-24T17:03:18.684Z,11.90
2022-10-24T17:05:49.808Z,11.87
2022-10-24T17:08:17.479Z,11.92
2022-10-24T17:10:45.260Z,11.91
2022-10-24T17:13:12.963Z,11.88
2022-10-24T17:15:42.322Z,11.87
2022-10-24T17:18:11.510Z,11.88
2022-10-24T17:20:43.373Z,11.91
2022-10-24T17:23:12.906Z,11.92
2022-10-24T17:25:44.065Z,11.91
2022-10-24T17:28:16.793Z,11.92
2022-10-24T17:30:48.795Z,11.86
2022-10-24T17:33:16.747Z,11.91
2022-10-24T17:35:48.545Z,11.93
2022-10-24T17:38:33.190Z,11.92
2022-10-24T17:41:14.020Z,11.93
2022-10-24T17:43:42.157Z,11.94
2022-10-24T17:46:14.158Z,11.93
2022-10-24T17:48:41.989Z,11.94
2022-10-24T17:51:12.286Z,11.93
2022-10-24T17:53:39.978Z,11.98
2022-10-24T17:56:08.581Z,12.03
2022-10-24T17:58:36.404Z,12.05
2022-10-24T18:01:04.155Z,12.03
2022-10-24T18:03:33.893Z,11.97
2022-10-24T18:06:03.226Z,12.01
2022-10-24T18:08:34.223Z,12.02
2022-10-24T18:11:02.461Z,12.03
2022-10-24T18:13:30.450Z,12.04
2022-10-24T18:15:58.122Z,12.02
2022-10-24T18:18:25.989Z,12.02
2022-10-24T18:21:05.874Z,12.05
2022-10-24T18:23:35.241Z,12.01
2022-10-24T18:26:07.568Z,12.00
2022-10-24T18:28:37.960Z,11.99
2022-10-24T18:31:09.795Z,11.98
2022-10-24T18:33:37.719Z,11.95
2022-10-24T18:36:08.978Z,11.96
2022-10-24T18:38:37.322Z,11.95
2022-10-24T18:41:05.478Z,11.97
2022-10-24T18:43:33.478Z,11.95
2022-10-24T18:46:01.904Z,11.99
2022-10-24T18:48:30.278Z,11.95
2022-10-24T18:50:58.377Z,11.95
2022-10-24T18:53:34.081Z,11.98
2022-10-24T18:56:02.023Z,11.96
2022-10-24T18:58:29.805Z,11.97
2022-10-24T19:00:59.939Z,11.96
2022-10-24T19:03:33.605Z,12.00
2022-10-24T19:06:11.673Z,12.02
2022-10-24T19:08:41.078Z,12.03
2022-10-24T19:13:42.982Z,12.00
2022-10-24T19:16:16.334Z,12.02
2022-10-24T19:18:49.223Z,11.98
2022-10-24T19:21:19.569Z,11.95
2022-10-24T19:23:49.313Z,11.95
2022-10-24T19:26:17.211Z,11.93
2022-10-24T19:28:45.310Z,11.91
2022-10-24T19:31:14.844Z,11.90
2022-10-24T19:33:42.563Z,11.91
2022-10-24T19:36:14.327Z,11.90
2022-10-24T19:38:44.793Z,11.86
2022-10-24T19:41:14.037Z,11.90
2022-10-24T19:43:41.727Z,11.89
2022-10-24T19:46:24.925Z,11.88
2022-10-24T19:48:53.364Z,11.91
2022-10-24T19:51:22.995Z,11.87
2022-10-24T19:53:52.536Z,11.83
2022-10-24T19:56:25.267Z,11.78
2022-10-24T19:58:53.920Z,11.80
2022-10-24T20:01:23.714Z,11.82
2022-10-24T20:03:52.412Z,11.75
2022-10-24T20:06:20.367Z,11.66
2022-10-24T20:08:49.972Z,11.57
2022-10-24T20:11:20.323Z,11.57
2022-10-24T20:13:50.625Z,11.55
2022-10-24T20:16:18.934Z,11.58
2022-10-24T20:18:47.689Z,11.60
2022-10-24T20:21:18.628Z,11.60
2022-10-24T20:23:47.852Z,11.65
2022-10-24T20:26:17.543Z,11.65
2022-10-24T20:28:47.226Z,11.69
2022-10-24T20:31:24.750Z,11.66
2022-10-24T20:33:53.304Z,11.68
2022-10-24T20:36:23.438Z,11.64
2022-10-24T20:38:51.253Z,11.57
2022-10-24T20:41:18.931Z,11.56
2022-10-24T20:43:46.719Z,11.48
2022-10-24T20:46:14.821Z,11.46
2022-10-24T20:48:43.964Z,11.29
2022-10-24T20:51:13.482Z,11.23
2022-10-24T20:53:42.492Z,11.02
2022-10-24T20:56:13.446Z,11.05
2022-10-24T20:58:42.783Z,11.11
2022-10-24T21:01:13.413Z,11.15
2022-10-24T21:03:43.324Z,11.19
2022-10-24T21:06:16.859Z,11.33
2022-10-24T21:08:48.448Z,11.35
2022-10-24T21:11:17.414Z,11.30
2022-10-24T21:13:46.492Z,11.22
2022-10-24T21:16:17.527Z,11.33
2022-10-24T21:18:46.605Z,11.35
2022-10-24T21:21:16.169Z,11.35
2022-10-24T21:23:50.721Z,11.27
2022-10-24T21:26:19.343Z,11.32
2022-10-24T21:28:47.039Z,11.28
2022-10-24T21:31:16.403Z,11.29
2022-10-24T21:33:44.581Z,11.33
2022-10-24T21:36:15.433Z,11.33
2022-10-24T21:38:43.690Z,11.36
2022-10-24T21:41:11.630Z,11.41
2022-10-24T21:43:41.361Z,11.41
2022-10-24T21:46:11.012Z,11.39
2022-10-24T21:48:40.344Z,11.36
2022-10-24T21:51:10.889Z,11.40
2022-10-24T21:53:41.121Z,11.41
2022-10-24T21:56:10.874Z,11.46
2022-10-24T21:58:39.489Z,11.52
2022-10-24T22:01:11.762Z,11.52
2022-10-24T22:03:40.125Z,11.56
2022-10-24T22:06:08.541Z,11.55
2022-10-24T22:08:36.151Z,11.56
2022-10-24T22:11:06.742Z,11.57
2022-10-24T22:13:35.837Z,11.53
2022-10-24T22:16:04.347Z,11.57
2022-10-24T22:18:33.803Z,11.55
2022-10-24T22:21:02.983Z,11.63
2022-10-24T22:23:31.249Z,11.61
2022-10-24T22:26:01.121Z,11.59
2022-10-24T22:28:30.121Z,11.54
2022-10-24T22:30:58.310Z,11.42
2022-10-24T22:33:34.136Z,11.33
2022-10-24T22:36:07.592Z,11.26
2022-10-24T22:38:38.214Z,11.13
2022-10-24T22:41:06.394Z,10.97
2022-10-24T22:43:36.171Z,10.73
2022-10-24T22:46:12.419Z,10.77
2022-10-24T22:48:47.811Z,10.73
2022-10-24T22:51:17.317Z,10.62
2022-10-24T22:53:45.672Z,10.49
2022-10-24T22:56:17.124Z,10.46
2022-10-24T23:04:58.244Z,10.02
2022-10-24T23:07:28.146Z,10.02
2022-10-24T23:09:57.236Z,9.92
2022-10-24T23:12:25.421Z,10.02
2022-10-24T23:14:54.323Z,9.93
2022-10-24T23:17:24.752Z,9.73
2022-10-24T23:19:55.225Z,9.64
2022-10-24T23:22:25.379Z,9.57
2022-10-24T23:24:55.058Z,9.52
2022-10-24T23:27:33.778Z,9.51
2022-10-24T23:30:02.571Z,9.41
2022-10-24T23:32:35.297Z,9.46
2022-10-24T23:35:05.361Z,9.51
2022-10-24T23:37:35.473Z,9.52
2022-10-24T23:40:13.305Z,9.44
2022-10-24T23:42:41.819Z,9.30
2022-10-24T23:45:13.275Z,9.28
2022-10-24T23:47:58.929Z,9.23
2022-10-24T23:50:35.266Z,9.16
2022-10-24T23:53:24.726Z,9.13
2022-10-24T23:55:53.117Z,9.08
2022-10-24T23:58:21.163Z,9.02
